Search for airport 
image banner adimage banner adimage banner ad
image banner ad

0IA0 - Knoxville Area Community Hospital

Located in Knoxville, United States

ICAO - 0IA0, IATA -

Data provided by Airmate  

General information

Coordinates: N41°18'42" W93°6'42"
Elevation is 927 feet MSL.
Magnetic variation is 04° East
View others Airports in Iowa

Operational data

Special qualification required
Current time UTC:
Current local time:
Weather at : KOXV - Knoxville Muni ( 1 km )
METAR: KOXV 150935Z AUTO 33004KT 10SM CLR 16/12 A3008 RMK AO2
View NOTAMs / SUP AIP / TFR affecting this airport [VIEW]
Communications frequencies: [VIEW]

Runways:

Airport contact information

Address: Knoxville United States

Satellite view of 0IA0